Time,TemperatureF,DewpointF,PressureIn,WindDirection,WindDirectionDegrees,WindSpeedMPH,WindSpeedGustMPH,Humidity,HourlyPrecipIn,Conditions,Clouds,dailyrainin,SolarRadiationWatts/m^2,SoftwareType,DateUTC
2013-02-14 00:01:00,18.0,9.0,-100.00,ENE,61,1.0,7.0,68,0.00,,,0.01,1.000000,,2013-02-14 07:01:00,
2013-02-14 00:11:00,18.0,9.0,-100.00,ENE,61,1.0,7.0,68,0.00,,,0.01,1.000000,,2013-02-14 07:11:00,
2013-02-14 00:21:00,18.0,9.0,-100.00,ENE,61,1.0,7.0,68,0.00,,,0.01,1.000000,,2013-02-14 07:21:00,
2013-02-14 00:42:00,18.0,11.0,-100.00,SSW,202,2.0,4.0,75,0.00,,,0.01,1.000000,,2013-02-14 07:42:00,
2013-02-14 00:52:00,18.0,11.0,-100.00,SSW,202,2.0,4.0,75,0.00,,,0.01,1.000000,,2013-02-14 07:52:00,
2013-02-14 01:01:00,18.0,11.0,-100.00,SSW,202,2.0,4.0,75,0.00,,,0.01,1.000000,,2013-02-14 08:01:00,
2013-02-14 01:11:00,18.0,11.0,-100.00,SSW,202,2.0,4.0,75,0.00,,,0.01,1.000000,,2013-02-14 08:11:00,
2013-02-14 01:21:00,18.0,11.0,-100.00,SSW,202,2.0,4.0,75,0.00,,,0.01,1.000000,,2013-02-14 08:21:00,
2013-02-14 01:43:00,20.0,7.0,-100.00,SSW,209,2.0,9.0,56,0.00,,,0.01,1.000000,,2013-02-14 08:43:00,
2013-02-14 01:52:00,20.0,7.0,-100.00,SSW,209,2.0,9.0,56,0.00,,,0.01,1.000000,,2013-02-14 08:52:00,
2013-02-14 02:02:00,20.0,7.0,-100.00,SSW,209,2.0,9.0,56,0.00,,,0.01,1.000000,,2013-02-14 09:02:00,
2013-02-14 02:11:00,20.0,7.0,-100.00,SSW,209,2.0,9.0,56,0.00,,,0.01,1.000000,,2013-02-14 09:11:00,
2013-02-14 02:21:00,20.0,7.0,-100.00,SSW,209,2.0,9.0,56,0.00,,,0.01,1.000000,,2013-02-14 09:21:00,
2013-02-14 02:42:00,19.0,11.0,-100.00,SW,227,4.0,8.0,69,0.00,,,0.01,1.000000,,2013-02-14 09:42:00,
2013-02-14 02:52:00,19.0,11.0,-100.00,SW,227,4.0,8.0,69,0.00,,,0.01,1.000000,,2013-02-14 09:52:00,
2013-02-14 03:02:00,19.0,11.0,-100.00,SW,227,4.0,8.0,69,0.00,,,0.01,1.000000,,2013-02-14 10:02:00,
2013-02-14 03:11:00,19.0,11.0,-100.00,SW,227,4.0,8.0,69,0.00,,,0.01,1.000000,,2013-02-14 10:11:00,
2013-02-14 03:21:00,19.0,11.0,-100.00,SW,227,4.0,8.0,69,0.00,,,0.01,1.000000,,2013-02-14 10:21:00,
2013-02-14 03:42:00,19.0,11.0,-100.00,SW,229,3.0,9.0,71,0.00,,,0.01,1.000000,,2013-02-14 10:42:00,
2013-02-14 03:52:00,19.0,11.0,-100.00,SW,229,3.0,9.0,71,0.00,,,0.01,1.000000,,2013-02-14 10:52:00,
2013-02-14 04:02:00,19.0,11.0,-100.00,SW,229,3.0,9.0,71,0.00,,,0.01,1.000000,,2013-02-14 11:02:00,
2013-02-14 04:11:00,19.0,11.0,-100.00,SW,229,3.0,9.0,71,0.00,,,0.01,1.000000,,2013-02-14 11:11:00,
2013-02-14 04:21:00,19.0,11.0,-100.00,SW,229,3.0,9.0,71,0.00,,,0.01,1.000000,,2013-02-14 11:21:00,
2013-02-14 04:42:00,20.0,9.0,-100.00,WSW,241,6.0,16.0,63,0.00,,,0.01,1.000000,,2013-02-14 11:42:00,
2013-02-14 04:52:00,20.0,9.0,-100.00,WSW,241,6.0,16.0,63,0.00,,,0.01,1.000000,,2013-02-14 11:52:00,
2013-02-14 05:02:00,20.0,9.0,-100.00,WSW,241,6.0,16.0,63,0.00,,,0.01,1.000000,,2013-02-14 12:02:00,
2013-02-14 05:12:00,20.0,9.0,-100.00,WSW,241,6.0,16.0,63,0.00,,,0.01,1.000000,,2013-02-14 12:12:00,
2013-02-14 05:22:00,20.0,9.0,-100.00,WSW,241,6.0,16.0,63,0.00,,,0.01,1.000000,,2013-02-14 12:22:00,
2013-02-14 05:42:00,21.0,9.0,-100.00,SW,215,6.0,19.0,60,0.00,,,0.01,1.000000,,2013-02-14 12:42:00,
2013-02-14 05:53:00,21.0,9.0,-100.00,SW,215,6.0,19.0,60,0.00,,,0.01,1.000000,,2013-02-14 12:53:00,
2013-02-14 06:02:00,21.0,9.0,-100.00,SW,215,6.0,19.0,60,0.00,,,0.01,1.000000,,2013-02-14 13:02:00,
2013-02-14 06:11:00,21.0,9.0,-100.00,SW,215,6.0,19.0,60,0.00,,,0.01,1.000000,,2013-02-14 13:11:00,
2013-02-14 06:21:00,21.0,9.0,-100.00,SW,215,6.0,19.0,60,0.00,,,0.01,1.000000,,2013-02-14 13:21:00,
2013-02-14 06:42:00,19.0,9.0,-100.00,SW,216,5.0,12.0,64,0.00,,,0.01,1.000000,,2013-02-14 13:42:00,
2013-02-14 06:52:00,19.0,9.0,-100.00,SW,216,5.0,12.0,64,0.00,,,0.01,1.000000,,2013-02-14 13:52:00,
2013-02-14 07:01:00,19.0,9.0,-100.00,SW,216,5.0,12.0,64,0.00,,,0.01,1.000000,,2013-02-14 14:01:00,
2013-02-14 07:11:00,19.0,9.0,-100.00,SW,216,5.0,12.0,64,0.00,,,0.01,1.000000,,2013-02-14 14:11:00,
2013-02-14 07:21:00,19.0,9.0,-100.00,SW,216,5.0,12.0,64,0.00,,,0.01,1.000000,,2013-02-14 14:21:00,
2013-02-14 07:42:00,17.0,7.0,-100.00,West,259,7.0,22.0,64,0.00,,,0.01,5.000000,,2013-02-14 14:42:00,
2013-02-14 07:52:00,17.0,7.0,-100.00,West,259,7.0,22.0,64,0.00,,,0.01,5.000000,,2013-02-14 14:52:00,
2013-02-14 08:02:00,17.0,7.0,-100.00,West,259,7.0,22.0,64,0.00,,,0.01,5.000000,,2013-02-14 15:02:00,
2013-02-14 08:11:00,17.0,7.0,-100.00,West,259,7.0,22.0,64,0.00,,,0.01,5.000000,,2013-02-14 15:11:00,
2013-02-14 08:21:00,17.0,7.0,-100.00,West,259,7.0,22.0,64,0.00,,,0.01,5.000000,,2013-02-14 15:21:00,
2013-02-14 08:42:00,19.0,10.0,-100.00,WNW,288,5.0,15.0,66,0.00,,,0.01,72.000000,,2013-02-14 15:42:00,
2013-02-14 08:52:00,19.0,10.0,-100.00,WNW,288,5.0,15.0,66,0.00,,,0.01,72.000000,,2013-02-14 15:52:00,
2013-02-14 09:02:00,19.0,10.0,-100.00,WNW,288,5.0,15.0,66,0.00,,,0.01,72.000000,,2013-02-14 16:02:00,
2013-02-14 09:11:00,19.0,10.0,-100.00,WNW,288,5.0,15.0,66,0.00,,,0.01,72.000000,,2013-02-14 16:11:00,
2013-02-14 09:21:00,19.0,10.0,-100.00,WNW,288,5.0,15.0,66,0.00,,,0.01,72.000000,,2013-02-14 16:21:00,
2013-02-14 09:42:00,21.0,7.0,-100.00,WNW,302,8.0,23.0,54,0.00,,,0.01,229.000000,,2013-02-14 16:42:00,
2013-02-14 09:52:00,21.0,7.0,-100.00,WNW,302,8.0,23.0,54,0.00,,,0.01,229.000000,,2013-02-14 16:52:00,
2013-02-14 10:01:00,21.0,7.0,-100.00,WNW,302,8.0,23.0,54,0.00,,,0.01,229.000000,,2013-02-14 17:01:00,
2013-02-14 10:11:00,21.0,7.0,-100.00,WNW,302,8.0,23.0,54,0.00,,,0.01,229.000000,,2013-02-14 17:11:00,
2013-02-14 10:21:00,21.0,7.0,-100.00,WNW,302,8.0,23.0,54,0.00,,,0.01,229.000000,,2013-02-14 17:21:00,
2013-02-14 10:42:00,25.0,8.0,-100.00,NW,313,7.0,16.0,48,0.00,,,0.01,408.000000,,2013-02-14 17:42:00,
2013-02-14 10:52:00,25.0,8.0,-100.00,NW,313,7.0,16.0,48,0.00,,,0.01,408.000000,,2013-02-14 17:52:00,
2013-02-14 11:01:00,25.0,8.0,-100.00,NW,313,7.0,16.0,48,0.00,,,0.01,408.000000,,2013-02-14 18:01:00,
2013-02-14 11:11:00,25.0,8.0,-100.00,NW,313,7.0,16.0,48,0.00,,,0.01,408.000000,,2013-02-14 18:11:00,
2013-02-14 11:22:00,25.0,8.0,-100.00,NW,313,7.0,16.0,48,0.00,,,0.01,408.000000,,2013-02-14 18:22:00,
2013-02-14 11:42:00,26.0,6.0,-100.00,NW,319,6.0,23.0,42,0.01,,,0.02,543.000000,,2013-02-14 18:42:00,
2013-02-14 11:52:00,26.0,6.0,-100.00,NW,319,6.0,23.0,42,0.01,,,0.02,543.000000,,2013-02-14 18:52:00,
2013-02-14 12:02:00,26.0,6.0,-100.00,NW,319,6.0,23.0,42,0.01,,,0.02,543.000000,,2013-02-14 19:02:00,
2013-02-14 12:11:00,26.0,6.0,-100.00,NW,319,6.0,23.0,42,0.01,,,0.02,543.000000,,2013-02-14 19:11:00,
2013-02-14 12:21:00,26.0,6.0,-100.00,NW,319,6.0,23.0,42,0.01,,,0.02,543.000000,,2013-02-14 19:21:00,
2013-02-14 12:42:00,25.0,8.0,-100.00,SW,229,5.0,18.0,48,0.00,,,0.02,527.000000,,2013-02-14 19:42:00,
2013-02-14 12:52:00,25.0,8.0,-100.00,SW,229,5.0,18.0,48,0.00,,,0.02,527.000000,,2013-02-14 19:52:00,
2013-02-14 13:01:00,25.0,8.0,-100.00,SW,229,5.0,18.0,48,0.00,,,0.02,527.000000,,2013-02-14 20:01:00,
2013-02-14 13:11:00,25.0,8.0,-100.00,SW,229,5.0,18.0,48,0.00,,,0.02,527.000000,,2013-02-14 20:11:00,
2013-02-14 13:21:00,25.0,8.0,-100.00,SW,229,5.0,18.0,48,0.00,,,0.02,527.000000,,2013-02-14 20:21:00,
2013-02-14 13:42:00,24.0,4.0,-100.00,SSW,196,4.0,13.0,42,0.00,,,0.02,560.000000,,2013-02-14 20:42:00,
2013-02-14 13:52:00,24.0,4.0,-100.00,SSW,196,4.0,13.0,42,0.00,,,0.02,560.000000,,2013-02-14 20:52:00,
2013-02-14 14:02:00,24.0,4.0,-100.00,SSW,196,4.0,13.0,42,0.00,,,0.02,560.000000,,2013-02-14 21:02:00,
2013-02-14 14:11:00,24.0,4.0,-100.00,SSW,196,4.0,13.0,42,0.00,,,0.02,560.000000,,2013-02-14 21:11:00,
2013-02-14 14:21:00,24.0,4.0,-100.00,SSW,196,4.0,13.0,42,0.00,,,0.02,560.000000,,2013-02-14 21:21:00,
2013-02-14 14:42:00,23.0,8.0,-100.00,West,268,6.0,14.0,52,0.00,,,0.02,418.000000,,2013-02-14 21:42:00,
2013-02-14 14:52:00,23.0,8.0,-100.00,West,268,6.0,14.0,52,0.00,,,0.02,418.000000,,2013-02-14 21:52:00,
2013-02-14 15:02:00,23.0,8.0,-100.00,West,268,6.0,14.0,52,0.00,,,0.02,418.000000,,2013-02-14 22:02:00,
2013-02-14 15:11:00,23.0,8.0,-100.00,West,268,6.0,14.0,52,0.00,,,0.02,418.000000,,2013-02-14 22:11:00,
2013-02-14 15:21:00,23.0,8.0,-100.00,West,268,6.0,14.0,52,0.00,,,0.02,418.000000,,2013-02-14 22:21:00,
2013-02-14 15:42:00,24.0,2.0,-100.00,West,262,4.0,13.0,38,0.00,,,0.01,335.000000,,2013-02-14 22:42:00,
2013-02-14 15:52:00,24.0,2.0,-100.00,West,262,4.0,13.0,38,0.00,,,0.01,335.000000,,2013-02-14 22:52:00,
2013-02-14 16:01:00,24.0,2.0,-100.00,West,262,4.0,13.0,38,0.00,,,0.01,335.000000,,2013-02-14 23:01:00,
2013-02-14 16:11:00,24.0,2.0,-100.00,West,262,4.0,13.0,38,0.00,,,0.01,335.000000,,2013-02-14 23:11:00,
2013-02-14 16:21:00,24.0,2.0,-100.00,West,262,4.0,13.0,38,0.00,,,0.01,335.000000,,2013-02-14 23:21:00,
2013-02-14 16:42:00,21.0,3.0,-100.00,SW,225,5.0,15.0,44,0.00,,,0.01,232.000000,,2013-02-14 23:42:00,
2013-02-14 16:52:00,21.0,3.0,-100.00,SW,225,5.0,15.0,44,0.00,,,0.01,232.000000,,2013-02-14 23:52:00,
2013-02-14 17:01:00,21.0,3.0,-100.00,SW,225,5.0,15.0,44,0.00,,,0.01,232.000000,,2013-02-15 00:01:00,
2013-02-14 17:11:00,21.0,3.0,-100.00,SW,225,5.0,15.0,44,0.00,,,0.01,232.000000,,2013-02-15 00:11:00,
2013-02-14 17:21:00,21.0,3.0,-100.00,SW,225,5.0,15.0,44,0.00,,,0.01,232.000000,,2013-02-15 00:21:00,
2013-02-14 17:42:00,15.0,2.0,-100.00,WSW,244,3.0,10.0,56,0.00,,,0.01,62.000000,,2013-02-15 00:42:00,
2013-02-14 17:52:00,15.0,2.0,-100.00,WSW,244,3.0,10.0,56,0.00,,,0.01,62.000000,,2013-02-15 00:52:00,
2013-02-14 18:02:00,15.0,2.0,-100.00,WSW,244,3.0,10.0,56,0.00,,,0.01,62.000000,,2013-02-15 01:02:00,
2013-02-14 18:11:00,15.0,2.0,-100.00,WSW,244,3.0,10.0,56,0.00,,,0.01,62.000000,,2013-02-15 01:11:00,
2013-02-14 18:21:00,15.0,2.0,-100.00,WSW,244,3.0,10.0,56,0.00,,,0.01,62.000000,,2013-02-15 01:21:00,
2013-02-14 18:42:00,12.0,1.0,-100.00,ESE,117,2.0,7.0,61,0.00,,,0.01,1.000000,,2013-02-15 01:42:00,
2013-02-14 18:52:00,12.0,1.0,-100.00,ESE,117,2.0,7.0,61,0.00,,,0.01,1.000000,,2013-02-15 01:52:00,
2013-02-14 19:01:00,12.0,1.0,-100.00,ESE,117,2.0,7.0,61,0.00,,,0.01,1.000000,,2013-02-15 02:01:00,
2013-02-14 19:11:00,12.0,1.0,-100.00,ESE,117,2.0,7.0,61,0.00,,,0.01,1.000000,,2013-02-15 02:11:00,
2013-02-14 19:21:00,12.0,1.0,-100.00,ESE,117,2.0,7.0,61,0.00,,,0.01,1.000000,,2013-02-15 02:21:00,
2013-02-14 19:42:00,10.0,0.0,-100.00,SSW,208,4.0,7.0,64,0.00,,,0.01,1.000000,,2013-02-15 02:42:00,
2013-02-14 19:52:00,10.0,0.0,-100.00,SSW,208,4.0,7.0,64,0.00,,,0.01,1.000000,,2013-02-15 02:52:00,
2013-02-14 20:02:00,10.0,0.0,-100.00,SSW,208,4.0,7.0,64,0.00,,,0.01,1.000000,,2013-02-15 03:02:00,
2013-02-14 20:11:00,10.0,0.0,-100.00,SSW,208,4.0,7.0,64,0.00,,,0.01,1.000000,,2013-02-15 03:11:00,
2013-02-14 20:22:00,10.0,0.0,-100.00,SSW,208,4.0,7.0,64,0.00,,,0.01,1.000000,,2013-02-15 03:22:00,
2013-02-14 20:42:00,8.0,0.0,-100.00,SSW,209,1.0,5.0,70,0.00,,,0.01,1.000000,,2013-02-15 03:42:00,
2013-02-14 20:52:00,8.0,0.0,-100.00,SSW,209,1.0,5.0,70,0.00,,,0.01,1.000000,,2013-02-15 03:52:00,
2013-02-14 21:01:00,8.0,0.0,-100.00,SSW,209,1.0,5.0,70,0.00,,,0.01,1.000000,,2013-02-15 04:01:00,
2013-02-14 21:11:00,8.0,0.0,-100.00,SSW,209,1.0,5.0,70,0.00,,,0.01,1.000000,,2013-02-15 04:11:00,
2013-02-14 21:21:00,8.0,0.0,-100.00,SSW,209,1.0,5.0,70,0.00,,,0.01,1.000000,,2013-02-15 04:21:00,
2013-02-14 21:42:00,6.0,0.0,-100.00,NE,43,2.0,4.0,74,0.00,,,0.01,1.000000,,2013-02-15 04:42:00,
2013-02-14 21:52:00,6.0,0.0,-100.00,NE,43,2.0,4.0,74,0.00,,,0.01,1.000000,,2013-02-15 04:52:00,
2013-02-14 22:02:00,6.0,0.0,-100.00,NE,43,2.0,4.0,74,0.00,,,0.01,1.000000,,2013-02-15 05:02:00,
2013-02-14 22:12:00,6.0,0.0,-100.00,NE,43,2.0,4.0,74,0.00,,,0.01,1.000000,,2013-02-15 05:12:00,
2013-02-14 22:22:00,6.0,0.0,-100.00,NE,43,2.0,4.0,74,0.00,,,0.01,1.000000,,2013-02-15 05:22:00,
2013-02-14 22:42:00,7.0,-1.0,-100.00,East,83,2.0,5.0,69,0.00,,,0.01,0.000000,,2013-02-15 05:42:00,
2013-02-14 22:52:00,7.0,-1.0,-100.00,East,83,2.0,5.0,69,0.00,,,0.01,0.000000,,2013-02-15 05:52:00,
2013-02-14 23:02:00,7.0,-1.0,-100.00,East,83,2.0,5.0,69,0.00,,,0.01,0.000000,,2013-02-15 06:02:00,
2013-02-14 23:11:00,7.0,-1.0,-100.00,East,83,2.0,5.0,69,0.00,,,0.01,0.000000,,2013-02-15 06:11:00,
2013-02-14 23:21:00,7.0,-1.0,-100.00,East,83,2.0,5.0,69,0.00,,,0.01,0.000000,,2013-02-15 06:21:00,
2013-02-14 23:42:00,6.0,-3.0,-100.00,NE,40,1.0,8.0,65,0.00,,,0.01,0.000000,,2013-02-15 06:42:00,
2013-02-14 23:52:00,6.0,-3.0,-100.00,NE,40,1.0,8.0,65,0.00,,,0.01,0.000000,,2013-02-15 06:52:00,